sensor_id;sensor_type;location;lat;lon;timestamp;pressure;altitude;pressure_sealevel;temperature;humidity
61786;BME280;47692;53.714;11.372;2023-02-23T00:01:24;100717.06;;;5.30;100.00
61786;BME280;47692;53.714;11.372;2023-02-23T00:03:53;100710.16;;;5.29;100.00
61786;BME280;47692;53.714;11.372;2023-02-23T00:06:19;100711.91;;;5.29;100.00
61786;BME280;47692;53.714;11.372;2023-02-23T00:08:44;100714.47;;;5.26;100.00
61786;BME280;47692;53.714;11.372;2023-02-23T00:11:13;100709.31;;;5.26;100.00
61786;BME280;47692;53.714;11.372;2023-02-23T00:13:40;100706.72;;;5.24;100.00
61786;BME280;47692;53.714;11.372;2023-02-23T00:16:07;100705.88;;;5.24;100.00
61786;BME280;47692;53.714;11.372;2023-02-23T00:18:33;100702.44;;;5.25;100.00
61786;BME280;47692;53.714;11.372;2023-02-23T00:21:13;100697.25;;;5.25;100.00
61786;BME280;47692;53.714;11.372;2023-02-23T00:23:40;100693.78;;;5.23;100.00
61786;BME280;47692;53.714;11.372;2023-02-23T00:26:06;100694.66;;;5.20;100.00
61786;BME280;47692;53.714;11.372;2023-02-23T00:28:31;100706.75;;;5.21;100.00
61786;BME280;47692;53.714;11.372;2023-02-23T00:30:56;100707.63;;;5.25;100.00
61786;BME280;47692;53.714;11.372;2023-02-23T00:33:22;100711.91;;;5.20;100.00
61786;BME280;47692;53.714;11.372;2023-02-23T00:35:47;100701.56;;;5.24;100.00
61786;BME280;47692;53.714;11.372;2023-02-23T00:38:12;100701.56;;;5.24;100.00
61786;BME280;47692;53.714;11.372;2023-02-23T00:40:39;100694.66;;;5.25;100.00
61786;BME280;47692;53.714;11.372;2023-02-23T00:43:05;100706.72;;;5.20;100.00
61786;BME280;47692;53.714;11.372;2023-02-23T00:45:30;100704.16;;;5.18;100.00
61786;BME280;47692;53.714;11.372;2023-02-23T00:47:55;100710.19;;;5.17;100.00
61786;BME280;47692;53.714;11.372;2023-02-23T00:50:21;100698.09;;;5.19;100.00
61786;BME280;47692;53.714;11.372;2023-02-23T00:52:47;100697.25;;;5.15;100.00
61786;BME280;47692;53.714;11.372;2023-02-23T00:55:13;100700.69;;;5.19;100.00
61786;BME280;47692;53.714;11.372;2023-02-23T00:57:39;100701.56;;;5.24;100.00
61786;BME280;47692;53.714;11.372;2023-02-23T01:00:09;100697.25;;;5.22;100.00
61786;BME280;47692;53.714;11.372;2023-02-23T01:02:42;100695.50;;;5.21;100.00
61786;BME280;47692;53.714;11.372;2023-02-23T01:05:08;100699.84;;;5.18;100.00
61786;BME280;47692;53.714;11.372;2023-02-23T01:07:35;100696.38;;;5.18;100.00
61786;BME280;47692;53.714;11.372;2023-02-23T01:10:00;100710.22;;;5.12;100.00
61786;BME280;47692;53.714;11.372;2023-02-23T01:12:25;100698.13;;;5.16;100.00
61786;BME280;47692;53.714;11.372;2023-02-23T01:14:50;100704.16;;;5.15;100.00
61786;BME280;47692;53.714;11.372;2023-02-23T01:17:16;100702.41;;;5.15;100.00
61786;BME280;47692;53.714;11.372;2023-02-23T01:19:42;100685.16;;;5.14;100.00
61786;BME280;47692;53.714;11.372;2023-02-23T01:22:07;100694.66;;;5.11;100.00
61786;BME280;47692;53.714;11.372;2023-02-23T01:24:32;100698.13;;;5.13;100.00
61786;BME280;47692;53.714;11.372;2023-02-23T01:26:58;100694.66;;;5.08;100.00
61786;BME280;47692;53.714;11.372;2023-02-23T01:29:23;100686.91;;;5.09;100.00
61786;BME280;47692;53.714;11.372;2023-02-23T01:31:48;100680.84;;;5.06;100.00
61786;BME280;47692;53.714;11.372;2023-02-23T01:34:18;100683.47;;;5.01;100.00
61786;BME280;47692;53.714;11.372;2023-02-23T01:36:45;100685.16;;;4.96;100.00
61786;BME280;47692;53.714;11.372;2023-02-23T01:39:16;100692.09;;;4.94;100.00
61786;BME280;47692;53.714;11.372;2023-02-23T01:41:42;100688.63;;;4.92;100.00
61786;BME280;47692;53.714;11.372;2023-02-23T01:46:55;100685.19;;;4.93;100.00
61786;BME280;47692;53.714;11.372;2023-02-23T01:49:27;100686.91;;;4.92;100.00
61786;BME280;47692;53.714;11.372;2023-02-23T01:52:06;100683.47;;;4.85;100.00
61786;BME280;47692;53.714;11.372;2023-02-23T01:54:38;100692.09;;;4.81;100.00
61786;BME280;47692;53.714;11.372;2023-02-23T01:57:05;100686.03;;;4.85;100.00
61786;BME280;47692;53.714;11.372;2023-02-23T01:59:39;100685.16;;;4.83;100.00
61786;BME280;47692;53.714;11.372;2023-02-23T02:02:05;100690.34;;;4.83;100.00
61786;BME280;47692;53.714;11.372;2023-02-23T02:04:33;100688.66;;;4.89;100.00
61786;BME280;47692;53.714;11.372;2023-02-23T02:07:08;100681.75;;;4.88;100.00
61786;BME280;47692;53.714;11.372;2023-02-23T02:09:34;100684.31;;;4.91;100.00
61786;BME280;47692;53.714;11.372;2023-02-23T02:12:02;100682.59;;;4.88;100.00
61786;BME280;47692;53.714;11.372;2023-02-23T02:14:32;100684.31;;;4.83;100.00
61786;BME280;47692;53.714;11.372;2023-02-23T02:25:34;100669.66;;;4.82;100.00
61786;BME280;47692;53.714;11.372;2023-02-23T02:28:29;100662.78;;;4.82;100.00
61786;BME280;47692;53.714;11.372;2023-02-23T02:31:38;100666.19;;;4.84;100.00
61786;BME280;47692;53.714;11.372;2023-02-23T02:34:32;100658.47;;;4.81;100.00
61786;BME280;47692;53.714;11.372;2023-02-23T02:37:17;100652.41;;;4.79;100.00
61786;BME280;47692;53.714;11.372;2023-02-23T02:39:52;100643.78;;;4.77;100.00
61786;BME280;47692;53.714;11.372;2023-02-23T02:42:33;100644.66;;;4.78;100.00
61786;BME280;47692;53.714;11.372;2023-02-23T02:45:07;100650.69;;;4.75;100.00
61786;BME280;47692;53.714;11.372;2023-02-23T02:48:00;100648.09;;;4.69;100.00
61786;BME280;47692;53.714;11.372;2023-02-23T02:50:49;100642.94;;;4.71;100.00
61786;BME280;47692;53.714;11.372;2023-02-23T02:53:25;100642.06;;;4.72;100.00
61786;BME280;47692;53.714;11.372;2023-02-23T02:55:54;100648.94;;;4.71;100.00
61786;BME280;47692;53.714;11.372;2023-02-23T02:58:21;100648.13;;;4.75;100.00
61786;BME280;47692;53.714;11.372;2023-02-23T03:00:50;100640.34;;;4.77;100.00
61786;BME280;47692;53.714;11.372;2023-02-23T03:03:41;100637.75;;;4.69;100.00
61786;BME280;47692;53.714;11.372;2023-02-23T03:06:50;100634.31;;;4.70;100.00
61786;BME280;47692;53.714;11.372;2023-02-23T03:21:27;100634.28;;;4.62;100.00
61786;BME280;47692;53.714;11.372;2023-02-23T03:24:36;100638.59;;;4.59;100.00
61786;BME280;47692;53.714;11.372;2023-02-23T03:33:36;100640.34;;;4.52;100.00
61786;BME280;47692;53.714;11.372;2023-02-23T03:36:26;100638.59;;;4.52;100.00
61786;BME280;47692;53.714;11.372;2023-02-23T03:39:20;100638.59;;;4.52;100.00
61786;BME280;47692;53.714;11.372;2023-02-23T03:42:12;100633.44;;;4.49;100.00
61786;BME280;47692;53.714;11.372;2023-02-23T03:45:03;100634.28;;;4.48;100.00
61786;BME280;47692;53.714;11.372;2023-02-23T03:47:49;100638.63;;;4.46;100.00
61786;BME280;47692;53.714;11.372;2023-02-23T03:50:38;100642.06;;;4.45;100.00
61786;BME280;47692;53.714;11.372;2023-02-23T03:53:27;100639.44;;;4.37;100.00
61786;BME280;47692;53.714;11.372;2023-02-23T03:56:16;100636.88;;;4.39;100.00
61786;BME280;47692;53.714;11.372;2023-02-23T03:59:04;100636.88;;;4.39;100.00
61786;BME280;47692;53.714;11.372;2023-02-23T04:01:49;100629.13;;;4.34;100.00
61786;BME280;47692;53.714;11.372;2023-02-23T04:04:35;100636.88;;;4.36;100.00
61786;BME280;47692;53.714;11.372;2023-02-23T04:07:19;100633.44;;;4.34;100.00
61786;BME280;47692;53.714;11.372;2023-02-23T04:10:06;100635.13;;;4.32;100.00
61786;BME280;47692;53.714;11.372;2023-02-23T04:12:57;100638.59;;;4.34;100.00
61786;BME280;47692;53.714;11.372;2023-02-23T04:15:53;100638.56;;;4.32;100.00
61786;BME280;47692;53.714;11.372;2023-02-23T04:18:24;100637.75;;;4.36;100.00
61786;BME280;47692;53.714;11.372;2023-02-23T04:20:51;100632.53;;;4.35;100.00
61786;BME280;47692;53.714;11.372;2023-02-23T04:23:16;100635.13;;;4.33;100.00
61786;BME280;47692;53.714;11.372;2023-02-23T04:25:42;100640.31;;;4.32;100.00
61786;BME280;47692;53.714;11.372;2023-02-23T04:28:07;100634.28;;;4.28;100.00
61786;BME280;47692;53.714;11.372;2023-02-23T04:30:33;100642.88;;;4.27;100.00
61786;BME280;47692;53.714;11.372;2023-02-23T04:32:58;100647.19;;;4.27;100.00
61786;BME280;47692;53.714;11.372;2023-02-23T04:35:24;100646.34;;;4.22;100.00
61786;BME280;47692;53.714;11.372;2023-02-23T04:37:51;100639.41;;;4.17;100.00
61786;BME280;47692;53.714;11.372;2023-02-23T04:40:17;100641.13;;;4.20;100.00
61786;BME280;47692;53.714;11.372;2023-02-23T04:42:42;100633.38;;;4.09;100.00
61786;BME280;47692;53.714;11.372;2023-02-23T04:45:08;100638.53;;;4.09;100.00
61786;BME280;47692;53.714;11.372;2023-02-23T04:47:34;100638.56;;;4.15;100.00
61786;BME280;47692;53.714;11.372;2023-02-23T04:50:00;100640.25;;;4.10;100.00
61786;BME280;47692;53.714;11.372;2023-02-23T04:52:25;100642.84;;;4.09;100.00
61786;BME280;47692;53.714;11.372;2023-02-23T04:54:50;100641.16;;;4.15;100.00
61786;BME280;47692;53.714;11.372;2023-02-23T04:57:15;100642.00;;;4.16;100.00
61786;BME280;47692;53.714;11.372;2023-02-23T04:59:41;100643.75;;;4.22;100.00
61786;BME280;47692;53.714;11.372;2023-02-23T05:02:07;100648.91;;;4.22;100.00
61786;BME280;47692;53.714;11.372;2023-02-23T05:04:32;100646.31;;;4.25;100.00
61786;BME280;47692;53.714;11.372;2023-02-23T05:07:01;100638.56;;;4.25;100.00
61786;BME280;47692;53.714;11.372;2023-02-23T05:09:27;100634.25;;;4.20;100.00
61786;BME280;47692;53.714;11.372;2023-02-23T05:11:53;100635.97;;;4.17;100.00
61786;BME280;47692;53.714;11.372;2023-02-23T05:14:19;100642.88;;;4.19;100.00
61786;BME280;47692;53.714;11.372;2023-02-23T05:16:45;100641.16;;;4.17;100.00
61786;BME280;47692;53.714;11.372;2023-02-23T05:19:10;100642.00;;;4.17;100.00
61786;BME280;47692;53.714;11.372;2023-02-23T05:21:36;100642.88;;;4.18;100.00
61786;BME280;47692;53.714;11.372;2023-02-23T05:24:03;100642.00;;;4.17;100.00
61786;BME280;47692;53.714;11.372;2023-02-23T05:26:28;100640.25;;;4.16;100.00
61786;BME280;47692;53.714;11.372;2023-02-23T05:28:53;100635.09;;;4.13;100.00
61786;BME280;47692;53.714;11.372;2023-02-23T05:31:20;100636.81;;;4.08;100.00
61786;BME280;47692;53.714;11.372;2023-02-23T05:33:45;100640.25;;;4.10;100.00
61786;BME280;47692;53.714;11.372;2023-02-23T05:36:13;100629.91;;;4.07;100.00
61786;BME280;47692;53.714;11.372;2023-02-23T05:38:40;100635.97;;;4.09;100.00
61786;BME280;47692;53.714;11.372;2023-02-23T05:41:07;100629.91;;;4.07;100.00
61786;BME280;47692;53.714;11.372;2023-02-23T05:43:32;100637.66;;;4.06;100.00
61786;BME280;47692;53.714;11.372;2023-02-23T05:45:58;100635.94;;;4.04;100.00
61786;BME280;47692;53.714;11.372;2023-02-23T05:48:25;100632.50;;;4.06;100.00
61786;BME280;47692;53.714;11.372;2023-02-23T05:50:50;100635.94;;;4.08;100.00
61786;BME280;47692;53.714;11.372;2023-02-23T05:53:16;100636.81;;;4.11;100.00
61786;BME280;47692;53.714;11.372;2023-02-23T05:55:41;100632.50;;;4.10;100.00
61786;BME280;47692;53.714;11.372;2023-02-23T05:58:06;100629.91;;;4.10;100.00
61786;BME280;47692;53.714;11.372;2023-02-23T06:00:31;100633.38;;;4.09;100.00
61786;BME280;47692;53.714;11.372;2023-02-23T06:02:57;100630.78;;;4.12;100.00
61786;BME280;47692;53.714;11.372;2023-02-23T06:05:22;100632.50;;;4.10;100.00
61786;BME280;47692;53.714;11.372;2023-02-23T06:07:48;100635.97;;;4.11;100.00
61786;BME280;47692;53.714;11.372;2023-02-23T06:10:14;100635.06;;;4.10;100.00
61786;BME280;47692;53.714;11.372;2023-02-23T06:12:39;100634.25;;;4.14;100.00
61786;BME280;47692;53.714;11.372;2023-02-23T06:15:05;100634.25;;;4.13;100.00
61786;BME280;47692;53.714;11.372;2023-02-23T06:17:30;100625.63;;;4.11;100.00
61786;BME280;47692;53.714;11.372;2023-02-23T06:19:56;100627.34;;;4.12;100.00
61786;BME280;47692;53.714;11.372;2023-02-23T06:22:23;100630.78;;;4.12;100.00
61786;BME280;47692;53.714;11.372;2023-02-23T06:24:48;100633.38;;;4.09;100.00
61786;BME280;47692;53.714;11.372;2023-02-23T06:27:13;100636.84;;;4.13;100.00
61786;BME280;47692;53.714;11.372;2023-02-23T06:29:39;100637.69;;;4.15;100.00
61786;BME280;47692;53.714;11.372;2023-02-23T06:32:04;100635.09;;;4.09;100.00
61786;BME280;47692;53.714;11.372;2023-02-23T06:34:30;100635.09;;;4.06;100.00
61786;BME280;47692;53.714;11.372;2023-02-23T06:36:55;100641.97;;;4.08;100.00
61786;BME280;47692;53.714;11.372;2023-02-23T06:39:20;100642.00;;;4.07;100.00
61786;BME280;47692;53.714;11.372;2023-02-23T06:41:46;100641.97;;;4.02;100.00
61786;BME280;47692;53.714;11.372;2023-02-23T06:44:11;100643.69;;;4.06;100.00
61786;BME280;47692;53.714;11.372;2023-02-23T06:46:36;100642.84;;;4.07;100.00
61786;BME280;47692;53.714;11.372;2023-02-23T06:49:02;100648.00;;;4.09;100.00
61786;BME280;47692;53.714;11.372;2023-02-23T06:51:28;100654.91;;;4.11;100.00
61786;BME280;47692;53.714;11.372;2023-02-23T06:53:53;100662.63;;;4.05;100.00
61786;BME280;47692;53.714;11.372;2023-02-23T06:56:19;100655.75;;;4.01;100.00
61786;BME280;47692;53.714;11.372;2023-02-23T06:58:44;100664.38;;;4.03;100.00
61786;BME280;47692;53.714;11.372;2023-02-23T07:01:10;100666.94;;;3.98;100.00
61786;BME280;47692;53.714;11.372;2023-02-23T07:03:37;100666.03;;;3.95;100.00
61786;BME280;47692;53.714;11.372;2023-02-23T07:06:02;100662.63;;;3.96;100.00
61786;BME280;47692;53.714;11.372;2023-02-23T07:08:30;100664.34;;;4.00;100.00
61786;BME280;47692;53.714;11.372;2023-02-23T07:10:55;100668.66;;;3.99;100.00
61786;BME280;47692;53.714;11.372;2023-02-23T07:13:22;100664.31;;;3.94;100.00
61786;BME280;47692;53.714;11.372;2023-02-23T07:15:47;100669.47;;;3.87;100.00
61786;BME280;47692;53.714;11.372;2023-02-23T07:18:13;100672.91;;;3.83;100.00
61786;BME280;47692;53.714;11.372;2023-02-23T07:20:38;100676.34;;;3.88;100.00
61786;BME280;47692;53.714;11.372;2023-02-23T07:23:06;100671.19;;;3.88;100.00
61786;BME280;47692;53.714;11.372;2023-02-23T07:25:32;100673.78;;;3.87;100.00
61786;BME280;47692;53.714;11.372;2023-02-23T07:27:57;100678.94;;;3.87;100.00
61786;BME280;47692;53.714;11.372;2023-02-23T07:30:23;100676.31;;;3.84;100.00
61786;BME280;47692;53.714;11.372;2023-02-23T07:32:49;100677.22;;;3.92;100.00
61786;BME280;47692;53.714;11.372;2023-02-23T07:35:15;100682.41;;;3.92;100.00
61786;BME280;47692;53.714;11.372;2023-02-23T07:37:40;100684.97;;;3.84;100.00
61786;BME280;47692;53.714;11.372;2023-02-23T07:40:07;100686.69;;;3.88;100.00
61786;BME280;47692;53.714;11.372;2023-02-23T07:42:32;100682.38;;;3.89;100.00
61786;BME280;47692;53.714;11.372;2023-02-23T07:44:57;100686.72;;;3.92;100.00
61786;BME280;47692;53.714;11.372;2023-02-23T07:47:23;100690.16;;;3.94;100.00
61786;BME280;47692;53.714;11.372;2023-02-23T07:49:55;100692.72;;;3.92;100.00
61786;BME280;47692;53.714;11.372;2023-02-23T07:52:20;100698.78;;;3.96;100.00
61786;BME280;47692;53.714;11.372;2023-02-23T07:54:46;100699.63;;;3.93;100.00
61786;BME280;47692;53.714;11.372;2023-02-23T07:57:11;100697.06;;;3.92;100.00
61786;BME280;47692;53.714;11.372;2023-02-23T07:59:36;100700.50;;;3.98;100.00
61786;BME280;47692;53.714;11.372;2023-02-23T08:02:03;100686.72;;;3.95;100.00
61786;BME280;47692;53.714;11.372;2023-02-23T08:04:28;100692.75;;;4.00;100.00
61786;BME280;47692;53.714;11.372;2023-02-23T08:06:53;100696.22;;;4.00;100.00
61786;BME280;47692;53.714;11.372;2023-02-23T08:09:19;100691.03;;;3.97;100.00
61786;BME280;47692;53.714;11.372;2023-02-23T08:11:44;100693.63;;;3.96;100.00
61786;BME280;47692;53.714;11.372;2023-02-23T08:14:10;100689.28;;;3.95;100.00
61786;BME280;47692;53.714;11.372;2023-02-23T08:16:35;100691.91;;;4.01;100.00
61786;BME280;47692;53.714;11.372;2023-02-23T08:19:01;100686.75;;;4.01;100.00
61786;BME280;47692;53.714;11.372;2023-02-23T08:21:27;100689.31;;;3.99;100.00
61786;BME280;47692;53.714;11.372;2023-02-23T08:23:56;100685.88;;;3.97;100.00
61786;BME280;47692;53.714;11.372;2023-02-23T08:26:21;100676.41;;;4.04;100.00
61786;BME280;47692;53.714;11.372;2023-02-23T08:28:49;100684.19;;;4.12;100.00
61786;BME280;47692;53.714;11.372;2023-02-23T08:31:15;100674.75;;;4.15;100.00
61786;BME280;47692;53.714;11.372;2023-02-23T08:33:42;100685.91;;;4.17;100.00
61786;BME280;47692;53.714;11.372;2023-02-23T08:36:08;100679.03;;;4.23;100.00
61786;BME280;47692;53.714;11.372;2023-02-23T08:38:33;100680.78;;;4.24;100.00
61786;BME280;47692;53.714;11.372;2023-02-23T08:41:01;100686.84;;;4.36;100.00
61786;BME280;47692;53.714;11.372;2023-02-23T08:43:27;100684.28;;;4.43;100.00
61786;BME280;47692;53.714;11.372;2023-02-23T08:45:53;100691.16;;;4.34;100.00
61786;BME280;47692;53.714;11.372;2023-02-23T08:48:18;100682.53;;;4.35;100.00
61786;BME280;47692;53.714;11.372;2023-02-23T08:50:46;100692.03;;;4.38;100.00
61786;BME280;47692;53.714;11.372;2023-02-23T08:53:14;100702.38;;;4.38;100.00
61786;BME280;47692;53.714;11.372;2023-02-23T08:55:39;100698.91;;;4.42;100.00
61786;BME280;47692;53.714;11.372;2023-02-23T08:58:07;100700.66;;;4.48;100.00
61786;BME280;47692;53.714;11.372;2023-02-23T09:00:35;100692.06;;;4.60;100.00
61786;BME280;47692;53.714;11.372;2023-02-23T09:03:00;100679.97;;;4.65;100.00
61786;BME280;47692;53.714;11.372;2023-02-23T09:05:25;100680.00;;;4.71;100.00
61786;BME280;47692;53.714;11.372;2023-02-23T09:07:51;100692.94;;;4.76;100.00
61786;BME280;47692;53.714;11.372;2023-02-23T09:10:18;100681.72;;;4.84;100.00
61786;BME280;47692;53.714;11.372;2023-02-23T09:12:49;100686.91;;;4.84;100.00
61786;BME280;47692;53.714;11.372;2023-02-23T09:15:15;100686.03;;;4.92;100.00
61786;BME280;47692;53.714;11.372;2023-02-23T09:17:41;100680.00;;;4.99;100.00
61786;BME280;47692;53.714;11.372;2023-02-23T09:20:11;100688.66;;;4.95;100.00
61786;BME280;47692;53.714;11.372;2023-02-23T09:22:39;100683.47;;;5.01;100.00
61786;BME280;47692;53.714;11.372;2023-02-23T09:25:04;100691.22;;;5.01;100.00
61786;BME280;47692;53.714;11.372;2023-02-23T09:27:30;100686.91;;;5.06;100.00
61786;BME280;47692;53.714;11.372;2023-02-23T09:29:55;100693.81;;;5.16;100.00
61786;BME280;47692;53.714;11.372;2023-02-23T09:32:21;100693.78;;;5.13;100.00
61786;BME280;47692;53.714;11.372;2023-02-23T09:34:46;100698.09;;;5.08;100.00
61786;BME280;47692;53.714;11.372;2023-02-23T09:37:13;100698.97;;;5.16;100.00
61786;BME280;47692;53.714;11.372;2023-02-23T09:39:38;100692.94;;;5.16;100.00
61786;BME280;47692;53.714;11.372;2023-02-23T09:42:15;100693.78;;;5.20;100.00
61786;BME280;47692;53.714;11.372;2023-02-23T09:45:01;100701.56;;;5.24;100.00
61786;BME280;47692;53.714;11.372;2023-02-23T09:50:17;100697.22;;;5.34;100.00
61786;BME280;47692;53.714;11.372;2023-02-23T09:52:49;100700.69;;;5.36;100.00
61786;BME280;47692;53.714;11.372;2023-02-23T09:55:16;100697.22;;;5.42;100.00
61786;BME280;47692;53.714;11.372;2023-02-23T09:57:44;100696.34;;;5.47;100.00
61786;BME280;47692;53.714;11.372;2023-02-23T10:00:22;100691.16;;;5.43;100.00
61786;BME280;47692;53.714;11.372;2023-02-23T10:02:58;100699.78;;;5.42;100.00
61786;BME280;47692;53.714;11.372;2023-02-23T10:05:27;100701.50;;;5.44;100.00
61786;BME280;47692;53.714;11.372;2023-02-23T10:08:02;100698.91;;;5.50;100.00
61786;BME280;47692;53.714;11.372;2023-02-23T10:10:39;100704.97;;;5.53;100.00
61786;BME280;47692;53.714;11.372;2023-02-23T10:15:56;100697.97;;;5.78;100.00
61786;BME280;47692;53.714;11.372;2023-02-23T10:18:36;100700.59;;;5.79;100.00
61786;BME280;47692;53.714;11.372;2023-02-23T10:21:07;100697.06;;;5.93;100.00
61786;BME280;47692;53.714;11.372;2023-02-23T10:23:41;100698.78;;;6.00;100.00
61786;BME280;47692;53.714;11.372;2023-02-23T10:26:15;100700.50;;;6.07;100.00
61786;BME280;47692;53.714;11.372;2023-02-23T10:28:41;100696.16;;;6.08;100.00
61786;BME280;47692;53.714;11.372;2023-02-23T10:31:25;100692.69;;;6.13;100.00
61786;BME280;47692;53.714;11.372;2023-02-23T10:33:54;100693.53;;;6.22;100.00
61786;BME280;47692;53.714;11.372;2023-02-23T10:36:32;100690.88;;;6.31;100.00
61786;BME280;47692;53.714;11.372;2023-02-23T10:38:59;100693.47;;;6.31;100.00
61786;BME280;47692;53.714;11.372;2023-02-23T10:41:24;100689.97;;;6.38;100.00
61786;BME280;47692;53.714;11.372;2023-02-23T10:43:50;100691.66;;;6.45;100.00
61786;BME280;47692;53.714;11.372;2023-02-23T10:46:20;100690.75;;;6.51;100.00
61786;BME280;47692;53.714;11.372;2023-02-23T10:48:48;100695.06;;;6.57;100.00
61786;BME280;47692;53.714;11.372;2023-02-23T10:51:22;100697.66;;;6.52;100.00
61786;BME280;47692;53.714;11.372;2023-02-23T10:53:48;100694.19;;;6.58;100.00
61786;BME280;47692;53.714;11.372;2023-02-23T10:56:16;100700.25;;;6.57;100.00
61786;BME280;47692;53.714;11.372;2023-02-23T10:58:45;100691.59;;;6.55;100.00
61786;BME280;47692;53.714;11.372;2023-02-23T11:01:13;100696.75;;;6.64;100.00
61786;BME280;47692;53.714;11.372;2023-02-23T11:03:45;100700.19;;;6.60;100.00
61786;BME280;47692;53.714;11.372;2023-02-23T11:06:35;100697.63;;;6.58;100.00
61786;BME280;47692;53.714;11.372;2023-02-23T11:11:59;100691.56;;;6.61;100.00
61786;BME280;47692;53.714;11.372;2023-02-23T11:14:28;100693.31;;;6.57;100.00
61786;BME280;47692;53.714;11.372;2023-02-23T11:16:55;100685.56;;;6.54;100.00
61786;BME280;47692;53.714;11.372;2023-02-23T11:19:28;100689.88;;;6.54;100.00
61786;BME280;47692;53.714;11.372;2023-02-23T11:21:57;100691.59;;;6.58;100.00
61786;BME280;47692;53.714;11.372;2023-02-23T11:24:35;100683.00;;;6.50;100.00
61786;BME280;47692;53.714;11.372;2023-02-23T11:27:04;100688.16;;;6.53;100.00
61786;BME280;47692;53.714;11.372;2023-02-23T11:29:33;100688.16;;;6.53;100.00
61786;BME280;47692;53.714;11.372;2023-02-23T11:32:26;100686.44;;;6.52;100.00
61786;BME280;47692;53.714;11.372;2023-02-23T11:35:27;100684.72;;;6.51;100.00
61786;BME280;47692;53.714;11.372;2023-02-23T11:37:54;100684.72;;;6.47;100.00
61786;BME280;47692;53.714;11.372;2023-02-23T11:40:28;100672.66;;;6.42;100.00
61786;BME280;47692;53.714;11.372;2023-02-23T11:42:56;100680.41;;;6.48;100.00
61786;BME280;47692;53.714;11.372;2023-02-23T11:45:25;100669.19;;;6.44;100.00
61786;BME280;47692;53.714;11.372;2023-02-23T11:47:57;100667.47;;;6.46;100.00
61786;BME280;47692;53.714;11.372;2023-02-23T11:50:34;100659.69;;;6.46;100.00
61786;BME280;47692;53.714;11.372;2023-02-23T11:53:16;100665.69;;;6.49;100.00
61786;BME280;47692;53.714;11.372;2023-02-23T11:55:48;100658.81;;;6.44;100.00
61786;BME280;47692;53.714;11.372;2023-02-23T11:58:28;100657.09;;;6.43;100.00
61786;BME280;47692;53.714;11.372;2023-02-23T12:00:57;100652.78;;;6.41;100.00
61786;BME280;47692;53.714;11.372;2023-02-23T12:03:24;100647.56;;;6.45;100.00
61786;BME280;47692;53.714;11.372;2023-02-23T13:36:21;100615.59;;;6.43;100.00
61786;BME280;47692;53.714;11.372;2023-02-23T13:41:45;100613.88;;;6.45;100.00
61786;BME280;47692;53.714;11.372;2023-02-23T13:44:24;100613.88;;;6.42;100.00
61786;BME280;47692;53.714;11.372;2023-02-23T13:47:05;100613.06;;;6.36;100.00
61786;BME280;47692;53.714;11.372;2023-02-23T13:49:45;100615.66;;;6.34;100.00
61786;BME280;47692;53.714;11.372;2023-02-23T13:52:27;100615.63;;;6.37;100.00
61786;BME280;47692;53.714;11.372;2023-02-23T13:54:59;100619.06;;;6.42;100.00
61786;BME280;47692;53.714;11.372;2023-02-23T13:57:27;100614.72;;;6.41;100.00
61786;BME280;47692;53.714;11.372;2023-02-23T13:59:53;100615.63;;;6.37;100.00
61786;BME280;47692;53.714;11.372;2023-02-23T14:05:02;100623.44;;;6.34;100.00
61786;BME280;47692;53.714;11.372;2023-02-23T14:07:29;100624.31;;;6.33;100.00
61786;BME280;47692;53.714;11.372;2023-02-23T14:12:37;100620.84;;;6.34;100.00
61786;BME280;47692;53.714;11.372;2023-02-23T14:17:58;100623.47;;;6.29;100.00
61786;BME280;47692;53.714;11.372;2023-02-23T14:25:51;100624.34;;;6.27;100.00
61786;BME280;47692;53.714;11.372;2023-02-23T14:41:54;100624.34;;;6.27;100.00
61786;BME280;47692;53.714;11.372;2023-02-23T14:44:29;100632.16;;;6.25;100.00
61786;BME280;47692;53.714;11.372;2023-02-23T14:47:05;100634.72;;;6.24;100.00
61786;BME280;47692;53.714;11.372;2023-02-23T14:49:34;100627.81;;;6.26;100.00
61786;BME280;47692;53.714;11.372;2023-02-23T14:52:07;100630.41;;;6.26;100.00
61786;BME280;47692;53.714;11.372;2023-02-23T14:57:17;100626.94;;;6.32;100.00
61786;BME280;47692;53.714;11.372;2023-02-23T14:59:43;100619.19;;;6.24;100.00
61786;BME280;47692;53.714;11.372;2023-02-23T15:02:15;100627.78;;;6.29;100.00
61786;BME280;47692;53.714;11.372;2023-02-23T15:04:41;100616.59;;;6.24;100.00
61786;BME280;47692;53.714;11.372;2023-02-23T15:07:14;100620.88;;;6.31;100.00
61786;BME280;47692;53.714;11.372;2023-02-23T15:09:43;100614.84;;;6.27;100.00
61786;BME280;47692;53.714;11.372;2023-02-23T15:12:15;100615.72;;;6.28;100.00
61786;BME280;47692;53.714;11.372;2023-02-23T15:14:41;100614.03;;;6.21;100.00
61786;BME280;47692;53.714;11.372;2023-02-23T15:17:15;100617.44;;;6.23;100.00
61786;BME280;47692;53.714;11.372;2023-02-23T15:19:42;100622.63;;;6.26;100.00
61786;BME280;47692;53.714;11.372;2023-02-23T15:22:22;100622.59;;;6.32;100.00
61786;BME280;47692;53.714;11.372;2023-02-23T15:24:49;100622.50;;;6.41;100.00
61786;BME280;47692;53.714;11.372;2023-02-23T15:27:20;100632.88;;;6.44;100.00
61786;BME280;47692;53.714;11.372;2023-02-23T15:29:47;100625.94;;;6.50;100.00
61786;BME280;47692;53.714;11.372;2023-02-23T15:32:20;100627.66;;;6.51;100.00
61786;BME280;47692;53.714;11.372;2023-02-23T15:34:46;100630.28;;;6.44;100.00
61786;BME280;47692;53.714;11.372;2023-02-23T15:37:34;100627.69;;;6.44;100.00